sensor_id;sensor_type;location;lat;lon;timestamp;P1;durP1;ratioP1;P2;durP2;ratioP2
21352;SDS011;10834;52.268;6.770;2023-02-15T00:01:54;68.67;;;40.20;;
21352;SDS011;10834;52.268;6.770;2023-02-15T00:04:41;67.40;;;41.10;;
21352;SDS011;10834;52.268;6.770;2023-02-15T00:07:33;72.43;;;41.83;;
21352;SDS011;10834;52.268;6.770;2023-02-15T00:10:19;87.00;;;46.43;;
21352;SDS011;10834;52.268;6.770;2023-02-15T00:13:05;97.40;;;51.27;;
21352;SDS011;10834;52.268;6.770;2023-02-15T00:15:51;88.93;;;45.20;;
21352;SDS011;10834;52.268;6.770;2023-02-15T00:18:37;89.07;;;47.80;;
21352;SDS011;10834;52.268;6.770;2023-02-15T00:21:24;81.97;;;45.00;;
21352;SDS011;10834;52.268;6.770;2023-02-15T00:24:11;65.80;;;38.63;;
21352;SDS011;10834;52.268;6.770;2023-02-15T00:26:58;60.50;;;37.17;;
21352;SDS011;10834;52.268;6.770;2023-02-15T00:29:46;62.50;;;37.70;;
21352;SDS011;10834;52.268;6.770;2023-02-15T00:32:32;59.97;;;34.00;;
21352;SDS011;10834;52.268;6.770;2023-02-15T00:35:18;56.97;;;36.50;;
21352;SDS011;10834;52.268;6.770;2023-02-15T00:38:04;51.10;;;33.00;;
21352;SDS011;10834;52.268;6.770;2023-02-15T00:40:53;58.53;;;34.87;;
21352;SDS011;10834;52.268;6.770;2023-02-15T00:43:40;58.93;;;33.43;;
21352;SDS011;10834;52.268;6.770;2023-02-15T00:46:26;55.47;;;32.17;;
21352;SDS011;10834;52.268;6.770;2023-02-15T00:49:12;55.93;;;32.30;;
21352;SDS011;10834;52.268;6.770;2023-02-15T00:51:58;69.87;;;39.27;;
21352;SDS011;10834;52.268;6.770;2023-02-15T00:54:44;66.77;;;37.80;;
21352;SDS011;10834;52.268;6.770;2023-02-15T00:57:30;64.17;;;36.33;;
21352;SDS011;10834;52.268;6.770;2023-02-15T01:00:16;65.23;;;36.43;;
21352;SDS011;10834;52.268;6.770;2023-02-15T01:03:02;58.07;;;32.97;;
21352;SDS011;10834;52.268;6.770;2023-02-15T01:05:49;53.23;;;32.50;;
21352;SDS011;10834;52.268;6.770;2023-02-15T01:08:35;55.90;;;32.53;;
21352;SDS011;10834;52.268;6.770;2023-02-15T01:11:21;51.07;;;31.37;;
21352;SDS011;10834;52.268;6.770;2023-02-15T01:14:08;55.17;;;32.53;;
21352;SDS011;10834;52.268;6.770;2023-02-15T01:16:54;58.87;;;34.53;;
21352;SDS011;10834;52.268;6.770;2023-02-15T01:19:40;57.30;;;33.90;;
21352;SDS011;10834;52.268;6.770;2023-02-15T01:22:26;60.37;;;33.23;;
21352;SDS011;10834;52.268;6.770;2023-02-15T01:25:12;58.47;;;32.90;;
21352;SDS011;10834;52.268;6.770;2023-02-15T01:27:58;58.00;;;33.10;;
21352;SDS011;10834;52.268;6.770;2023-02-15T01:30:44;56.63;;;34.00;;
21352;SDS011;10834;52.268;6.770;2023-02-15T01:33:30;63.03;;;33.80;;
21352;SDS011;10834;52.268;6.770;2023-02-15T01:36:16;66.87;;;36.10;;
21352;SDS011;10834;52.268;6.770;2023-02-15T01:39:02;57.37;;;34.57;;
21352;SDS011;10834;52.268;6.770;2023-02-15T01:41:49;65.27;;;35.50;;
21352;SDS011;10834;52.268;6.770;2023-02-15T01:44:47;54.97;;;32.67;;
21352;SDS011;10834;52.268;6.770;2023-02-15T01:47:40;60.20;;;33.90;;
21352;SDS011;10834;52.268;6.770;2023-02-15T01:50:42;58.97;;;33.60;;
21352;SDS011;10834;52.268;6.770;2023-02-15T01:56:21;53.90;;;33.83;;
21352;SDS011;10834;52.268;6.770;2023-02-15T01:59:14;55.93;;;32.60;;
21352;SDS011;10834;52.268;6.770;2023-02-15T02:02:05;55.63;;;31.47;;
21352;SDS011;10834;52.268;6.770;2023-02-15T02:04:59;51.40;;;30.07;;
21352;SDS011;10834;52.268;6.770;2023-02-15T02:07:57;49.87;;;29.07;;
21352;SDS011;10834;52.268;6.770;2023-02-15T02:10:45;50.10;;;27.67;;
21352;SDS011;10834;52.268;6.770;2023-02-15T02:13:31;53.10;;;31.37;;
21352;SDS011;10834;52.268;6.770;2023-02-15T02:35:11;51.30;;;27.47;;
21352;SDS011;10834;52.268;6.770;2023-02-15T02:38:24;50.27;;;29.23;;
21352;SDS011;10834;52.268;6.770;2023-02-15T02:44:56;50.33;;;27.80;;
21352;SDS011;10834;52.268;6.770;2023-02-15T02:47:57;50.67;;;29.20;;
21352;SDS011;10834;52.268;6.770;2023-02-15T02:50:47;45.67;;;29.07;;
21352;SDS011;10834;52.268;6.770;2023-02-15T02:53:33;55.10;;;31.00;;
21352;SDS011;10834;52.268;6.770;2023-02-15T02:56:30;54.00;;;32.40;;
21352;SDS011;10834;52.268;6.770;2023-02-15T02:59:31;58.47;;;32.33;;
21352;SDS011;10834;52.268;6.770;2023-02-15T03:02:22;53.87;;;30.80;;
21352;SDS011;10834;52.268;6.770;2023-02-15T03:05:18;53.47;;;30.77;;
21352;SDS011;10834;52.268;6.770;2023-02-15T03:08:09;54.50;;;29.50;;
21352;SDS011;10834;52.268;6.770;2023-02-15T03:10:57;49.77;;;30.23;;
21352;SDS011;10834;52.268;6.770;2023-02-15T03:13:46;48.63;;;28.83;;
21352;SDS011;10834;52.268;6.770;2023-02-15T03:16:34;49.57;;;28.50;;
21352;SDS011;10834;52.268;6.770;2023-02-15T03:19:25;52.23;;;27.83;;
21352;SDS011;10834;52.268;6.770;2023-02-15T03:22:17;45.53;;;27.27;;
21352;SDS011;10834;52.268;6.770;2023-02-15T03:25:09;45.73;;;29.10;;
21352;SDS011;10834;52.268;6.770;2023-02-15T03:28:06;51.00;;;29.17;;
21352;SDS011;10834;52.268;6.770;2023-02-15T03:31:13;46.83;;;25.97;;
21352;SDS011;10834;52.268;6.770;2023-02-15T03:34:02;47.30;;;26.70;;
21352;SDS011;10834;52.268;6.770;2023-02-15T03:39:45;54.93;;;26.40;;
21352;SDS011;10834;52.268;6.770;2023-02-15T03:42:38;45.73;;;25.83;;
21352;SDS011;10834;52.268;6.770;2023-02-15T03:45:26;46.37;;;26.33;;
21352;SDS011;10834;52.268;6.770;2023-02-15T03:48:16;45.77;;;26.90;;
21352;SDS011;10834;52.268;6.770;2023-02-15T03:51:04;44.57;;;25.93;;
21352;SDS011;10834;52.268;6.770;2023-02-15T03:54:17;45.53;;;25.33;;
21352;SDS011;10834;52.268;6.770;2023-02-15T03:57:34;41.87;;;24.80;;
21352;SDS011;10834;52.268;6.770;2023-02-15T04:00:42;49.50;;;27.03;;
21352;SDS011;10834;52.268;6.770;2023-02-15T04:03:59;48.80;;;24.87;;
21352;SDS011;10834;52.268;6.770;2023-02-15T04:06:51;49.83;;;26.70;;
21352;SDS011;10834;52.268;6.770;2023-02-15T04:09:37;44.80;;;25.33;;
21352;SDS011;10834;52.268;6.770;2023-02-15T04:12:42;44.97;;;24.83;;
21352;SDS011;10834;52.268;6.770;2023-02-15T04:15:28;42.33;;;24.77;;
21352;SDS011;10834;52.268;6.770;2023-02-15T04:18:40;45.07;;;25.27;;
21352;SDS011;10834;52.268;6.770;2023-02-15T04:21:45;41.97;;;24.03;;
21352;SDS011;10834;52.268;6.770;2023-02-15T04:24:50;52.03;;;26.80;;
21352;SDS011;10834;52.268;6.770;2023-02-15T04:27:56;47.87;;;24.70;;
21352;SDS011;10834;52.268;6.770;2023-02-15T04:30:42;47.73;;;25.87;;
21352;SDS011;10834;52.268;6.770;2023-02-15T04:33:28;42.87;;;24.07;;
21352;SDS011;10834;52.268;6.770;2023-02-15T04:36:14;46.90;;;24.27;;
21352;SDS011;10834;52.268;6.770;2023-02-15T04:39:00;43.03;;;24.70;;
21352;SDS011;10834;52.268;6.770;2023-02-15T04:41:46;45.23;;;25.00;;
21352;SDS011;10834;52.268;6.770;2023-02-15T04:44:33;54.00;;;24.30;;
21352;SDS011;10834;52.268;6.770;2023-02-15T04:47:19;45.23;;;23.53;;
21352;SDS011;10834;52.268;6.770;2023-02-15T04:50:05;42.73;;;23.03;;
21352;SDS011;10834;52.268;6.770;2023-02-15T04:52:52;44.03;;;23.47;;
21352;SDS011;10834;52.268;6.770;2023-02-15T04:55:38;48.90;;;24.70;;
21352;SDS011;10834;52.268;6.770;2023-02-15T04:58:24;44.50;;;24.67;;
21352;SDS011;10834;52.268;6.770;2023-02-15T05:01:10;46.33;;;24.43;;
21352;SDS011;10834;52.268;6.770;2023-02-15T05:03:57;47.77;;;24.57;;
21352;SDS011;10834;52.268;6.770;2023-02-15T05:06:43;45.33;;;24.67;;
21352;SDS011;10834;52.268;6.770;2023-02-15T05:09:29;41.87;;;25.00;;
21352;SDS011;10834;52.268;6.770;2023-02-15T05:12:15;39.03;;;22.33;;
21352;SDS011;10834;52.268;6.770;2023-02-15T05:15:00;45.77;;;23.57;;
21352;SDS011;10834;52.268;6.770;2023-02-15T05:17:47;45.67;;;23.07;;
21352;SDS011;10834;52.268;6.770;2023-02-15T05:20:33;46.83;;;23.60;;
21352;SDS011;10834;52.268;6.770;2023-02-15T05:23:19;46.57;;;22.53;;
21352;SDS011;10834;52.268;6.770;2023-02-15T05:26:05;40.97;;;23.13;;
21352;SDS011;10834;52.268;6.770;2023-02-15T05:29:09;38.43;;;22.50;;
21352;SDS011;10834;52.268;6.770;2023-02-15T05:31:56;47.20;;;25.90;;
21352;SDS011;10834;52.268;6.770;2023-02-15T05:34:42;41.53;;;23.13;;
21352;SDS011;10834;52.268;6.770;2023-02-15T05:37:28;47.00;;;23.47;;
21352;SDS011;10834;52.268;6.770;2023-02-15T05:40:14;47.67;;;24.63;;
21352;SDS011;10834;52.268;6.770;2023-02-15T05:43:00;49.27;;;23.83;;
21352;SDS011;10834;52.268;6.770;2023-02-15T05:45:51;42.87;;;23.70;;
21352;SDS011;10834;52.268;6.770;2023-02-15T05:48:38;48.77;;;23.97;;
21352;SDS011;10834;52.268;6.770;2023-02-15T05:51:24;40.13;;;22.47;;
21352;SDS011;10834;52.268;6.770;2023-02-15T05:54:10;42.70;;;23.43;;
21352;SDS011;10834;52.268;6.770;2023-02-15T05:56:56;42.40;;;24.73;;
21352;SDS011;10834;52.268;6.770;2023-02-15T05:59:42;48.37;;;23.67;;
21352;SDS011;10834;52.268;6.770;2023-02-15T06:02:29;44.73;;;22.40;;
21352;SDS011;10834;52.268;6.770;2023-02-15T06:05:15;42.27;;;22.97;;
21352;SDS011;10834;52.268;6.770;2023-02-15T06:08:01;49.83;;;24.43;;
21352;SDS011;10834;52.268;6.770;2023-02-15T06:10:47;50.37;;;23.73;;
21352;SDS011;10834;52.268;6.770;2023-02-15T06:13:34;54.67;;;26.07;;
21352;SDS011;10834;52.268;6.770;2023-02-15T06:16:21;52.27;;;24.47;;
21352;SDS011;10834;52.268;6.770;2023-02-15T06:19:07;49.70;;;25.07;;
21352;SDS011;10834;52.268;6.770;2023-02-15T06:21:53;50.50;;;25.30;;
21352;SDS011;10834;52.268;6.770;2023-02-15T06:24:39;53.83;;;28.30;;
21352;SDS011;10834;52.268;6.770;2023-02-15T06:27:27;49.37;;;26.67;;
21352;SDS011;10834;52.268;6.770;2023-02-15T06:30:13;63.13;;;29.90;;
21352;SDS011;10834;52.268;6.770;2023-02-15T06:33:00;56.43;;;28.20;;
21352;SDS011;10834;52.268;6.770;2023-02-15T06:35:46;55.30;;;27.90;;
21352;SDS011;10834;52.268;6.770;2023-02-15T06:38:32;55.37;;;27.87;;
21352;SDS011;10834;52.268;6.770;2023-02-15T06:41:18;51.87;;;27.67;;
21352;SDS011;10834;52.268;6.770;2023-02-15T06:44:04;52.77;;;26.97;;
21352;SDS011;10834;52.268;6.770;2023-02-15T06:46:50;54.70;;;28.03;;
21352;SDS011;10834;52.268;6.770;2023-02-15T06:49:37;57.33;;;29.07;;
21352;SDS011;10834;52.268;6.770;2023-02-15T06:52:23;56.33;;;27.20;;
21352;SDS011;10834;52.268;6.770;2023-02-15T06:55:09;58.73;;;29.00;;
21352;SDS011;10834;52.268;6.770;2023-02-15T06:57:56;61.73;;;27.97;;
21352;SDS011;10834;52.268;6.770;2023-02-15T07:00:42;66.67;;;29.50;;
21352;SDS011;10834;52.268;6.770;2023-02-15T07:03:28;66.47;;;28.60;;
21352;SDS011;10834;52.268;6.770;2023-02-15T07:06:14;53.90;;;27.20;;
21352;SDS011;10834;52.268;6.770;2023-02-15T07:09:00;57.30;;;29.10;;
21352;SDS011;10834;52.268;6.770;2023-02-15T07:11:47;47.93;;;27.17;;
21352;SDS011;10834;52.268;6.770;2023-02-15T07:14:51;54.17;;;28.93;;
21352;SDS011;10834;52.268;6.770;2023-02-15T07:17:37;56.13;;;28.77;;
21352;SDS011;10834;52.268;6.770;2023-02-15T07:20:24;56.27;;;29.20;;
21352;SDS011;10834;52.268;6.770;2023-02-15T07:23:10;61.70;;;28.00;;
21352;SDS011;10834;52.268;6.770;2023-02-15T07:25:59;54.33;;;27.73;;
21352;SDS011;10834;52.268;6.770;2023-02-15T07:28:47;59.30;;;28.37;;
21352;SDS011;10834;52.268;6.770;2023-02-15T07:31:33;53.53;;;27.47;;
21352;SDS011;10834;52.268;6.770;2023-02-15T07:34:19;57.77;;;28.80;;
21352;SDS011;10834;52.268;6.770;2023-02-15T07:37:05;47.67;;;27.30;;
21352;SDS011;10834;52.268;6.770;2023-02-15T07:39:51;55.97;;;27.93;;
21352;SDS011;10834;52.268;6.770;2023-02-15T07:42:37;55.43;;;28.43;;
21352;SDS011;10834;52.268;6.770;2023-02-15T07:45:23;53.20;;;27.30;;
21352;SDS011;10834;52.268;6.770;2023-02-15T07:48:09;50.47;;;27.07;;
21352;SDS011;10834;52.268;6.770;2023-02-15T07:50:59;47.50;;;26.13;;
21352;SDS011;10834;52.268;6.770;2023-02-15T07:53:49;46.27;;;24.07;;
21352;SDS011;10834;52.268;6.770;2023-02-15T07:56:36;49.23;;;26.60;;
21352;SDS011;10834;52.268;6.770;2023-02-15T07:59:23;52.43;;;25.37;;
21352;SDS011;10834;52.268;6.770;2023-02-15T08:02:10;43.67;;;25.40;;
21352;SDS011;10834;52.268;6.770;2023-02-15T08:04:56;45.23;;;26.07;;
21352;SDS011;10834;52.268;6.770;2023-02-15T08:07:42;44.47;;;25.23;;
21352;SDS011;10834;52.268;6.770;2023-02-15T08:10:28;45.80;;;25.07;;
21352;SDS011;10834;52.268;6.770;2023-02-15T08:13:32;43.93;;;23.83;;
21352;SDS011;10834;52.268;6.770;2023-02-15T08:16:41;45.10;;;24.13;;
21352;SDS011;10834;52.268;6.770;2023-02-15T08:19:41;45.03;;;25.57;;
21352;SDS011;10834;52.268;6.770;2023-02-15T08:22:27;41.77;;;22.77;;
21352;SDS011;10834;52.268;6.770;2023-02-15T08:25:14;46.53;;;25.33;;
21352;SDS011;10834;52.268;6.770;2023-02-15T08:28:00;44.50;;;23.90;;
21352;SDS011;10834;52.268;6.770;2023-02-15T08:30:46;44.77;;;25.37;;
21352;SDS011;10834;52.268;6.770;2023-02-15T08:33:33;40.90;;;24.37;;
21352;SDS011;10834;52.268;6.770;2023-02-15T08:36:20;45.13;;;24.17;;
21352;SDS011;10834;52.268;6.770;2023-02-15T08:39:08;44.37;;;23.83;;
21352;SDS011;10834;52.268;6.770;2023-02-15T08:41:55;42.50;;;24.53;;
21352;SDS011;10834;52.268;6.770;2023-02-15T08:44:41;44.53;;;24.27;;
21352;SDS011;10834;52.268;6.770;2023-02-15T08:47:27;43.27;;;24.03;;
21352;SDS011;10834;52.268;6.770;2023-02-15T08:50:13;45.03;;;24.23;;
21352;SDS011;10834;52.268;6.770;2023-02-15T08:52:59;43.50;;;23.83;;
21352;SDS011;10834;52.268;6.770;2023-02-15T08:55:45;40.50;;;23.33;;
21352;SDS011;10834;52.268;6.770;2023-02-15T08:58:31;41.03;;;23.90;;
21352;SDS011;10834;52.268;6.770;2023-02-15T09:01:20;39.53;;;23.13;;
21352;SDS011;10834;52.268;6.770;2023-02-15T09:04:08;42.37;;;24.43;;
21352;SDS011;10834;52.268;6.770;2023-02-15T09:06:55;39.73;;;22.73;;
21352;SDS011;10834;52.268;6.770;2023-02-15T09:09:41;39.47;;;23.03;;
21352;SDS011;10834;52.268;6.770;2023-02-15T09:12:27;41.47;;;22.70;;
21352;SDS011;10834;52.268;6.770;2023-02-15T09:15:13;40.97;;;22.73;;
21352;SDS011;10834;52.268;6.770;2023-02-15T09:17:59;33.43;;;21.03;;
21352;SDS011;10834;52.268;6.770;2023-02-15T09:20:48;37.57;;;22.43;;
21352;SDS011;10834;52.268;6.770;2023-02-15T09:23:34;37.17;;;22.77;;
21352;SDS011;10834;52.268;6.770;2023-02-15T09:26:21;39.03;;;21.70;;
21352;SDS011;10834;52.268;6.770;2023-02-15T09:29:09;34.37;;;22.10;;
21352;SDS011;10834;52.268;6.770;2023-02-15T09:31:56;39.73;;;22.33;;
21352;SDS011;10834;52.268;6.770;2023-02-15T09:34:42;37.80;;;21.73;;
21352;SDS011;10834;52.268;6.770;2023-02-15T09:37:29;36.63;;;21.80;;
21352;SDS011;10834;52.268;6.770;2023-02-15T09:40:17;33.93;;;20.80;;
21352;SDS011;10834;52.268;6.770;2023-02-15T09:46:13;32.70;;;21.50;;
21352;SDS011;10834;52.268;6.770;2023-02-15T09:52:22;37.10;;;21.77;;
21352;SDS011;10834;52.268;6.770;2023-02-15T09:55:40;33.30;;;21.70;;
21352;SDS011;10834;52.268;6.770;2023-02-15T10:11:03;36.97;;;21.57;;
21352;SDS011;10834;52.268;6.770;2023-02-15T10:26:46;30.60;;;20.77;;
21352;SDS011;10834;52.268;6.770;2023-02-15T10:29:37;35.90;;;21.87;;
21352;SDS011;10834;52.268;6.770;2023-02-15T10:32:25;31.43;;;19.63;;
21352;SDS011;10834;52.268;6.770;2023-02-15T10:38:55;33.00;;;21.00;;
21352;SDS011;10834;52.268;6.770;2023-02-15T10:50:52;36.50;;;21.27;;
21352;SDS011;10834;52.268;6.770;2023-02-15T11:03:05;34.87;;;21.97;;
21352;SDS011;10834;52.268;6.770;2023-02-15T11:06:19;34.47;;;21.23;;
21352;SDS011;10834;52.268;6.770;2023-02-15T11:09:10;34.10;;;21.17;;
21352;SDS011;10834;52.268;6.770;2023-02-15T11:11:58;35.30;;;21.33;;
21352;SDS011;10834;52.268;6.770;2023-02-15T11:17:43;35.87;;;21.37;;
21352;SDS011;10834;52.268;6.770;2023-02-15T11:20:37;37.40;;;21.13;;
21352;SDS011;10834;52.268;6.770;2023-02-15T11:23:29;32.13;;;21.53;;
21352;SDS011;10834;52.268;6.770;2023-02-15T11:29:42;36.67;;;21.63;;
21352;SDS011;10834;52.268;6.770;2023-02-15T11:32:39;37.30;;;21.23;;
21352;SDS011;10834;52.268;6.770;2023-02-15T11:38:36;29.30;;;19.77;;
21352;SDS011;10834;52.268;6.770;2023-02-15T11:41:27;33.93;;;20.33;;
21352;SDS011;10834;52.268;6.770;2023-02-15T11:44:27;36.30;;;21.00;;
21352;SDS011;10834;52.268;6.770;2023-02-15T11:47:34;38.50;;;20.40;;
21352;SDS011;10834;52.268;6.770;2023-02-15T11:50:22;33.80;;;20.63;;
21352;SDS011;10834;52.268;6.770;2023-02-15T11:53:20;39.90;;;20.40;;
21352;SDS011;10834;52.268;6.770;2023-02-15T11:56:17;34.87;;;20.47;;
21352;SDS011;10834;52.268;6.770;2023-02-15T11:59:08;34.83;;;20.73;;
21352;SDS011;10834;52.268;6.770;2023-02-15T12:01:58;34.10;;;21.73;;
21352;SDS011;10834;52.268;6.770;2023-02-15T12:04:46;34.37;;;18.60;;
21352;SDS011;10834;52.268;6.770;2023-02-15T12:07:40;34.20;;;19.80;;
21352;SDS011;10834;52.268;6.770;2023-02-15T12:10:36;35.20;;;20.43;;
21352;SDS011;10834;52.268;6.770;2023-02-15T12:13:28;33.07;;;19.47;;
21352;SDS011;10834;52.268;6.770;2023-02-15T12:16:15;40.20;;;21.43;;
21352;SDS011;10834;52.268;6.770;2023-02-15T12:19:01;34.43;;;19.60;;
21352;SDS011;10834;52.268;6.770;2023-02-15T12:21:49;32.63;;;19.73;;
21352;SDS011;10834;52.268;6.770;2023-02-15T12:24:38;33.30;;;20.37;;
21352;SDS011;10834;52.268;6.770;2023-02-15T12:27:32;29.67;;;19.53;;
21352;SDS011;10834;52.268;6.770;2023-02-15T12:30:25;31.87;;;19.37;;
21352;SDS011;10834;52.268;6.770;2023-02-15T12:36:44;34.83;;;20.03;;
21352;SDS011;10834;52.268;6.770;2023-02-15T12:39:36;34.40;;;19.83;;
21352;SDS011;10834;52.268;6.770;2023-02-15T12:42:22;37.10;;;20.23;;
21352;SDS011;10834;52.268;6.770;2023-02-15T12:45:26;36.93;;;19.50;;
21352;SDS011;10834;52.268;6.770;2023-02-15T12:48:17;37.47;;;20.57;;
21352;SDS011;10834;52.268;6.770;2023-02-15T12:51:07;30.93;;;18.43;;
21352;SDS011;10834;52.268;6.770;2023-02-15T12:53:54;32.83;;;19.80;;
21352;SDS011;10834;52.268;6.770;2023-02-15T12:56:40;39.83;;;19.73;;
21352;SDS011;10834;52.268;6.770;2023-02-15T12:59:26;36.73;;;19.33;;
21352;SDS011;10834;52.268;6.770;2023-02-15T13:02:15;33.50;;;18.93;;
21352;SDS011;10834;52.268;6.770;2023-02-15T13:14:01;33.40;;;18.83;;
21352;SDS011;10834;52.268;6.770;2023-02-15T13:17:04;34.10;;;19.33;;
21352;SDS011;10834;52.268;6.770;2023-02-15T13:19:51;38.20;;;19.60;;
21352;SDS011;10834;52.268;6.770;2023-02-15T13:22:40;33.30;;;19.33;;
21352;SDS011;10834;52.268;6.770;2023-02-15T13:25:35;34.40;;;19.60;;
21352;SDS011;10834;52.268;6.770;2023-02-15T13:28:36;34.77;;;20.37;;
21352;SDS011;10834;52.268;6.770;2023-02-15T13:31:28;33.30;;;18.17;;
21352;SDS011;10834;52.268;6.770;2023-02-15T13:34:51;38.80;;;19.10;;
21352;SDS011;10834;52.268;6.770;2023-02-15T13:37:45;33.33;;;18.53;;
21352;SDS011;10834;52.268;6.770;2023-02-15T13:52:42;37.47;;;18.77;;
21352;SDS011;10834;52.268;6.770;2023-02-15T13:55:46;34.30;;;18.60;;
21352;SDS011;10834;52.268;6.770;2023-02-15T14:02:01;35.63;;;17.57;;
21352;SDS011;10834;52.268;6.770;2023-02-15T14:08:25;37.60;;;19.07;;
21352;SDS011;10834;52.268;6.770;2023-02-15T14:11:19;33.17;;;18.77;;
21352;SDS011;10834;52.268;6.770;2023-02-15T14:14:21;31.90;;;17.30;;
21352;SDS011;10834;52.268;6.770;2023-02-15T14:17:22;37.40;;;18.27;;
21352;SDS011;10834;52.268;6.770;2023-02-15T14:20:29;30.13;;;17.23;;
21352;SDS011;10834;52.268;6.770;2023-02-15T14:32:42;30.87;;;18.33;;
21352;SDS011;10834;52.268;6.770;2023-02-15T14:35:32;35.57;;;18.47;;
21352;SDS011;10834;52.268;6.770;2023-02-15T14:38:21;36.70;;;18.33;;
21352;SDS011;10834;52.268;6.770;2023-02-15T14:44:25;30.27;;;18.30;;
21352;SDS011;10834;52.268;6.770;2023-02-15T14:47:26;33.60;;;19.03;;
21352;SDS011;10834;52.268;6.770;2023-02-15T14:56:17;32.77;;;19.03;;
21352;SDS011;10834;52.268;6.770;2023-02-15T15:08:25;31.43;;;16.87;;
21352;SDS011;10834;52.268;6.770;2023-02-15T15:14:59;32.93;;;17.00;;
21352;SDS011;10834;52.268;6.770;2023-02-15T15:26:20;34.30;;;18.17;;
21352;SDS011;10834;52.268;6.770;2023-02-15T15:29:06;35.10;;;17.70;;
21352;SDS011;10834;52.268;6.770;2023-02-15T15:31:52;28.80;;;17.50;;
21352;SDS011;10834;52.268;6.770;2023-02-15T15:47:13;33.77;;;19.23;;
21352;SDS011;10834;52.268;6.770;2023-02-15T15:50:21;37.67;;;18.67;;
21352;SDS011;10834;52.268;6.770;2023-02-15T15:53:19;32.53;;;19.07;;
21352;SDS011;10834;52.268;6.770;2023-02-15T15:56:09;32.17;;;17.37;;
21352;SDS011;10834;52.268;6.770;2023-02-15T15:59:02;28.57;;;18.13;;
21352;SDS011;10834;52.268;6.770;2023-02-15T16:01:53;33.20;;;19.90;;
21352;SDS011;10834;52.268;6.770;2023-02-15T16:04:39;33.77;;;17.80;;
21352;SDS011;10834;52.268;6.770;2023-02-15T16:07:25;30.47;;;18.50;;
21352;SDS011;10834;52.268;6.770;2023-02-15T16:10:25;32.50;;;19.67;;
21352;SDS011;10834;52.268;6.770;2023-02-15T16:13:13;32.03;;;19.53;;
21352;SDS011;10834;52.268;6.770;2023-02-15T16:15:59;32.50;;;19.00;;
21352;SDS011;10834;52.268;6.770;2023-02-15T16:18:45;39.53;;;21.43;;
21352;SDS011;10834;52.268;6.770;2023-02-15T16:21:33;31.63;;;19.13;;
21352;SDS011;10834;52.268;6.770;2023-02-15T16:24:26;36.13;;;20.70;;
21352;SDS011;10834;52.268;6.770;2023-02-15T16:30:30;37.93;;;21.37;;
21352;SDS011;10834;52.268;6.770;2023-02-15T16:33:17;33.67;;;20.10;;
21352;SDS011;10834;52.268;6.770;2023-02-15T16:36:06;32.17;;;19.70;;
21352;SDS011;10834;52.268;6.770;2023-02-15T16:41:42;34.20;;;20.23;;
21352;SDS011;10834;52.268;6.770;2023-02-15T16:44:31;32.90;;;19.10;;
21352;SDS011;10834;52.268;6.770;2023-02-15T16:47:25;35.23;;;20.33;;
21352;SDS011;10834;52.268;6.770;2023-02-15T16:50:32;34.20;;;20.73;;
21352;SDS011;10834;52.268;6.770;2023-02-15T16:53:21;36.87;;;20.20;;
21352;SDS011;10834;52.268;6.770;2023-02-15T16:56:10;31.00;;;19.20;;
21352;SDS011;10834;52.268;6.770;2023-02-15T16:58:56;31.87;;;19.70;;
21352;SDS011;10834;52.268;6.770;2023-02-15T17:01:43;31.97;;;18.43;;
21352;SDS011;10834;52.268;6.770;2023-02-15T17:04:30;35.73;;;19.50;;
21352;SDS011;10834;52.268;6.770;2023-02-15T17:07:19;30.93;;;18.97;;
21352;SDS011;10834;52.268;6.770;2023-02-15T17:10:25;30.67;;;18.73;;
21352;SDS011;10834;52.268;6.770;2023-02-15T17:13:16;31.93;;;19.00;;
21352;SDS011;10834;52.268;6.770;2023-02-15T17:18:48;36.03;;;20.57;;
21352;SDS011;10834;52.268;6.770;2023-02-15T17:21:38;32.77;;;18.73;;
21352;SDS011;10834;52.268;6.770;2023-02-15T17:27:24;37.47;;;19.27;;
21352;SDS011;10834;52.268;6.770;2023-02-15T17:30:13;39.97;;;20.67;;
21352;SDS011;10834;52.268;6.770;2023-02-15T17:33:15;42.10;;;21.37;;
21352;SDS011;10834;52.268;6.770;2023-02-15T17:36:21;35.30;;;21.27;;
21352;SDS011;10834;52.268;6.770;2023-02-15T17:39:19;34.67;;;18.73;;
21352;SDS011;10834;52.268;6.770;2023-02-15T17:42:07;35.00;;;19.60;;
21352;SDS011;10834;52.268;6.770;2023-02-15T17:44:53;31.50;;;19.60;;
21352;SDS011;10834;52.268;6.770;2023-02-15T17:47:40;33.63;;;20.63;;
21352;SDS011;10834;52.268;6.770;2023-02-15T17:50:27;34.67;;;20.20;;
21352;SDS011;10834;52.268;6.770;2023-02-15T17:53:14;32.07;;;20.17;;
21352;SDS011;10834;52.268;6.770;2023-02-15T17:56:02;41.43;;;20.67;;
21352;SDS011;10834;52.268;6.770;2023-02-15T17:58:55;35.23;;;20.70;;
21352;SDS011;10834;52.268;6.770;2023-02-15T18:01:45;36.50;;;21.00;;
21352;SDS011;10834;52.268;6.770;2023-02-15T18:04:51;33.90;;;19.77;;
21352;SDS011;10834;52.268;6.770;2023-02-15T18:07:56;37.63;;;21.67;;
21352;SDS011;10834;52.268;6.770;2023-02-15T18:11:01;31.50;;;20.80;;
21352;SDS011;10834;52.268;6.770;2023-02-15T18:14:07;33.27;;;19.77;;
21352;SDS011;10834;52.268;6.770;2023-02-15T18:16:54;36.63;;;21.40;;
21352;SDS011;10834;52.268;6.770;2023-02-15T18:19:41;33.47;;;19.43;;
21352;SDS011;10834;52.268;6.770;2023-02-15T18:22:28;29.67;;;18.50;;
21352;SDS011;10834;52.268;6.770;2023-02-15T18:25:15;38.87;;;20.50;;
21352;SDS011;10834;52.268;6.770;2023-02-15T18:28:03;37.50;;;21.03;;
21352;SDS011;10834;52.268;6.770;2023-02-15T18:30:50;30.57;;;20.40;;
21352;SDS011;10834;52.268;6.770;2023-02-15T18:33:58;36.53;;;21.93;;
21352;SDS011;10834;52.268;6.770;2023-02-15T18:36:45;40.13;;;21.17;;
21352;SDS011;10834;52.268;6.770;2023-02-15T18:42:23;30.00;;;19.23;;
21352;SDS011;10834;52.268;6.770;2023-02-15T18:45:19;32.97;;;19.77;;
21352;SDS011;10834;52.268;6.770;2023-02-15T18:48:05;32.50;;;21.77;;
21352;SDS011;10834;52.268;6.770;2023-02-15T18:50:54;37.50;;;21.47;;
21352;SDS011;10834;52.268;6.770;2023-02-15T18:53:40;34.27;;;21.83;;
21352;SDS011;10834;52.268;6.770;2023-02-15T18:56:26;35.83;;;19.93;;
21352;SDS011;10834;52.268;6.770;2023-02-15T18:59:17;36.70;;;21.73;;
21352;SDS011;10834;52.268;6.770;2023-02-15T19:02:09;34.40;;;22.63;;
21352;SDS011;10834;52.268;6.770;2023-02-15T19:05:00;42.97;;;21.73;;
21352;SDS011;10834;52.268;6.770;2023-02-15T19:07:46;39.50;;;23.10;;
21352;SDS011;10834;52.268;6.770;2023-02-15T19:10:35;47.97;;;28.17;;
21352;SDS011;10834;52.268;6.770;2023-02-15T19:13:21;53.17;;;31.77;;
21352;SDS011;10834;52.268;6.770;2023-02-15T19:16:08;52.63;;;30.70;;
21352;SDS011;10834;52.268;6.770;2023-02-15T19:19:16;56.23;;;33.97;;
21352;SDS011;10834;52.268;6.770;2023-02-15T19:22:02;57.00;;;32.03;;
21352;SDS011;10834;52.268;6.770;2023-02-15T19:24:49;54.83;;;30.97;;
21352;SDS011;10834;52.268;6.770;2023-02-15T19:27:36;57.90;;;33.90;;
21352;SDS011;10834;52.268;6.770;2023-02-15T19:33:15;55.80;;;32.47;;
21352;SDS011;10834;52.268;6.770;2023-02-15T19:36:04;53.47;;;30.80;;
21352;SDS011;10834;52.268;6.770;2023-02-15T19:38:54;55.70;;;30.47;;
21352;SDS011;10834;52.268;6.770;2023-02-15T19:41:40;44.87;;;28.57;;
21352;SDS011;10834;52.268;6.770;2023-02-15T19:44:27;47.70;;;29.77;;
21352;SDS011;10834;52.268;6.770;2023-02-15T19:47:13;44.90;;;28.27;;
21352;SDS011;10834;52.268;6.770;2023-02-15T19:49:59;44.10;;;26.43;;